Weather at San Diego International Airport

Public forecast

Using degrees Fahrenheit for public forecast. Weather courtesy of forecast.io.

Current aviation weather report (METAR) for San Diego International Airport

Retrieved 2021/10/22 03:51 UTC (1 hour ago):

KSAN 220351Z 30003KT 10SM FEW015 FEW200 17/14 A3008 RMK AO2 SLP185 T01720139

Aviation forecast (TAF) for San Diego International Airport

Retrieved 2021-10-22 00:27 UTC (5 hours ago):

TAF KSAN 212324Z 2200/2306 29010KT P6SM FEW015 SCT200 FM220200 30006KT P6SM SCT012 SCT200 FM220500 VRB04KT P6SM BKN010 FM220800 VRB04KT 5SM BR OVC008 FM221600 29004KT P6SM OVC010 FM221900 30010KT P6SM SCT015 FM230100 31009KT P6SM BKN015 FM230300 31005KT P6SM OVC012